Tofield, Canada
Current Conditions -  °F | °C
As of 5:00 AM on Wednesday 28 Jan 2015 (Local Time) from CYXD Reporting Station
Few Clouds Few Clouds  
Wind Chill: 23°   Ceiling: Unl
Heat Index: 30°   Visibility: 9mi
Dew Point: 28°   Wind: 7mph
Humidity: 93%   Direction: 250°WSW
Pressure: 30.03"   Gusts: NA
Location:  53.37°N, 112.67°W
Report Text: CYXD 281200Z AUTO 25006KT 9SM FEW099 M01/M02 A3003 RMK SLP197
Loading
Personal Weather Stations






























Interactive Weather Map New forecast layout! Learn more

10-Day Weather Forecast

Advertisements
Track Severe Weather on mobile